Aviation Digital Data Service (ADDS)

Output produced by METARs form (1206 UTC 28 January 2015)
found at http://aviationweather.gov/adds/metars/
 
KLGA 281141Z 2812/2912 32014G21KT P6SM FEW150 
     FM281400 33016G24KT P6SM FEW030 
     FM282100 33012KT P6SM SKC 
     FM290300 36008KT P6SM SKC 
     FM290800 02005KT P6SM SKC